createdAt,value
2022-09-29T00:00:49.993Z,2.90
2022-09-29T00:06:19.049Z,5.60
2022-09-29T00:11:25.312Z,3.50
2022-09-29T00:16:29.941Z,4.90
2022-09-29T00:21:33.577Z,5.00
2022-09-29T00:26:37.201Z,4.90
2022-09-29T00:31:40.765Z,4.20
2022-09-29T00:36:44.673Z,4.00
2022-09-29T00:41:48.172Z,6.30
2022-09-29T00:46:58.982Z,4.50
2022-09-29T00:52:08.619Z,3.80
2022-09-29T00:57:15.622Z,3.50
2022-09-29T01:02:20.652Z,3.80
2022-09-29T01:07:25.528Z,3.60
2022-09-29T01:12:29.153Z,3.90
2022-09-29T01:17:32.779Z,4.70
2022-09-29T01:23:01.167Z,3.80
2022-09-29T01:28:13.894Z,3.80
2022-09-29T01:33:44.020Z,4.50
2022-09-29T01:39:11.383Z,3.20
2022-09-29T01:44:17.718Z,4.70
2022-09-29T01:49:23.610Z,4.00
2022-09-29T01:54:39.753Z,3.00
2022-09-29T01:59:50.042Z,3.10
2022-09-29T02:04:59.057Z,5.00
2022-09-29T02:10:08.020Z,4.50
2022-09-29T02:15:17.452Z,4.10
2022-09-29T02:20:23.220Z,5.10
2022-09-29T02:25:27.485Z,5.00
2022-09-29T02:30:32.193Z,3.80
2022-09-29T02:35:55.680Z,3.80
2022-09-29T02:41:37.966Z,7.40
2022-09-29T02:47:16.866Z,2.90
2022-09-29T02:52:51.542Z,2.80
2022-09-29T02:58:18.882Z,3.20
2022-09-29T03:03:23.904Z,4.10
2022-09-29T03:08:27.932Z,3.40
2022-09-29T03:13:36.348Z,3.20
2022-09-29T03:18:40.696Z,2.90
2022-09-29T03:23:44.421Z,3.10
2022-09-29T03:28:47.943Z,3.10
2022-09-29T03:33:51.465Z,4.40
2022-09-29T03:38:54.985Z,3.30
2022-09-29T03:43:58.504Z,3.50
2022-09-29T03:49:02.127Z,3.40
2022-09-29T03:54:05.899Z,3.10
2022-09-29T03:59:12.462Z,3.10
2022-09-29T04:04:16.168Z,6.10
2022-09-29T04:09:19.841Z,2.80
2022-09-29T04:14:23.622Z,4.10
2022-09-29T04:19:27.242Z,3.40
2022-09-29T04:24:30.872Z,3.10
2022-09-29T04:29:35.727Z,3.60
2022-09-29T04:34:39.667Z,3.00
2022-09-29T04:39:43.170Z,2.70
2022-09-29T04:44:47.409Z,3.90
2022-09-29T04:49:51.334Z,4.00
2022-09-29T04:54:54.858Z,4.20
2022-09-29T04:59:58.480Z,2.90
2022-09-29T05:05:02.990Z,3.50
2022-09-29T05:10:10.032Z,4.20
2022-09-29T05:15:14.262Z,3.50
2022-09-29T05:20:17.885Z,3.70
2022-09-29T05:25:26.040Z,3.20
2022-09-29T05:30:31.174Z,3.30
2022-09-29T05:35:35.817Z,5.10
2022-09-29T05:40:39.600Z,3.40
2022-09-29T05:45:43.207Z,3.20
2022-09-29T05:50:47.400Z,4.00
2022-09-29T05:55:51.974Z,5.70
2022-09-29T06:00:58.004Z,4.90
2022-09-29T06:06:17.202Z,3.30
2022-09-29T06:11:27.605Z,4.00
2022-09-29T06:16:33.184Z,4.00
2022-09-29T06:21:38.101Z,3.20
2022-09-29T06:26:41.725Z,3.70
2022-09-29T06:31:45.305Z,4.90
2022-09-29T06:37:08.003Z,3.30
2022-09-29T06:42:13.272Z,4.60
2022-09-29T06:47:18.934Z,6.20
2022-09-29T06:52:24.488Z,6.70
2022-09-29T06:57:31.602Z,4.80
2022-09-29T07:02:35.188Z,4.10
2022-09-29T07:07:40.695Z,4.90
2022-09-29T07:12:47.693Z,10.60
2022-09-29T07:17:52.646Z,7.60
2022-09-29T07:22:56.165Z,5.70
2022-09-29T07:27:59.687Z,4.90
2022-09-29T07:33:06.778Z,7.10
2022-09-29T07:38:11.435Z,7.00
2022-09-29T07:43:17.423Z,11.70
2022-09-29T07:48:20.968Z,4.60
2022-09-29T07:53:24.865Z,7.00
2022-09-29T07:58:28.384Z,6.20
2022-09-29T08:03:32.315Z,11.50
2022-09-29T08:08:51.847Z,5.90
2022-09-29T08:13:57.675Z,10.60
2022-09-29T08:19:02.371Z,5.80
2022-09-29T08:24:07.655Z,6.20
2022-09-29T08:29:17.287Z,6.50
2022-09-29T08:34:21.791Z,6.60
2022-09-29T08:39:26.946Z,5.40
2022-09-29T08:45:10.945Z,7.90
2022-09-29T08:50:31.570Z,11.30
2022-09-29T08:55:40.751Z,5.80
2022-09-29T09:01:10.570Z,5.60
2022-09-29T09:06:35.509Z,8.30
2022-09-29T09:12:04.913Z,11.30
2022-09-29T09:17:35.636Z,11.70
2022-09-29T09:22:49.898Z,11.00
2022-09-29T09:28:21.428Z,12.90
2022-09-29T09:33:42.621Z,8.00
2022-09-29T09:39:14.920Z,10.60
2022-09-29T09:44:37.927Z,6.60
2022-09-29T09:49:55.425Z,9.60
2022-09-29T09:55:08.103Z,8.50
2022-09-29T10:00:16.236Z,8.00
2022-09-29T10:05:26.398Z,6.10
2022-09-29T10:10:31.343Z,7.70
2022-09-29T10:15:52.126Z,6.30
2022-09-29T10:26:15.574Z,11.70
2022-09-29T10:31:36.730Z,7.00
2022-09-29T10:37:06.003Z,11.30
2022-09-29T10:42:38.381Z,11.20
2022-09-29T10:48:07.180Z,6.80
2022-09-29T10:53:27.337Z,9.20
2022-09-29T10:58:53.314Z,5.00
2022-09-29T11:04:06.863Z,8.20
2022-09-29T11:09:13.598Z,7.50
2022-09-29T11:14:43.687Z,8.80
2022-09-29T11:19:47.305Z,9.10
2022-09-29T11:25:00.038Z,4.00
2022-09-29T11:30:08.268Z,6.80
2022-09-29T11:35:34.928Z,4.50
2022-09-29T11:40:47.540Z,4.90
2022-09-29T11:46:14.036Z,5.00
2022-09-29T11:51:38.995Z,6.40
2022-09-29T11:56:54.533Z,5.60
2022-09-29T12:02:27.738Z,3.40
2022-09-29T12:07:46.455Z,8.00
2022-09-29T12:13:02.972Z,8.30
2022-09-29T12:18:17.241Z,6.70
2022-09-29T12:23:24.956Z,6.10
2022-09-29T12:28:39.955Z,12.90
2022-09-29T12:33:57.797Z,10.50
2022-09-29T12:39:11.541Z,5.70
2022-09-29T12:44:31.842Z,5.80
2022-09-29T12:50:02.463Z,6.30
2022-09-29T12:55:20.451Z,6.50
2022-09-29T13:00:24.813Z,5.50
2022-09-29T13:05:48.368Z,4.80
2022-09-29T13:11:13.954Z,6.90
2022-09-29T13:16:38.166Z,6.30
2022-09-29T13:22:13.423Z,4.40
2022-09-29T13:27:28.188Z,5.90
2022-09-29T13:32:34.200Z,7.10
2022-09-29T13:37:53.244Z,7.10
2022-09-29T13:43:03.379Z,9.10
2022-09-29T13:48:32.108Z,7.50
2022-09-29T13:53:37.882Z,6.30
2022-09-29T13:58:44.572Z,11.20
2022-09-29T14:03:49.117Z,6.30
2022-09-29T14:09:04.108Z,15.60
2022-09-29T14:14:22.796Z,6.50
2022-09-29T14:19:44.508Z,10.80
2022-09-29T14:24:49.863Z,16.40
2022-09-29T14:30:02.496Z,15.30
2022-09-29T14:35:16.560Z,10.40
2022-09-29T14:40:33.401Z,11.10
2022-09-29T14:46:06.542Z,14.60
2022-09-29T14:52:00.957Z,11.50
2022-09-29T14:57:22.590Z,13.50
2022-09-29T15:02:29.426Z,18.40
2022-09-29T15:07:41.477Z,11.50
2022-09-29T15:12:48.006Z,8.50
2022-09-29T15:18:01.642Z,9.30
2022-09-29T15:23:24.096Z,16.10
2022-09-29T15:28:39.092Z,10.10
2022-09-29T15:33:44.886Z,11.80
2022-09-29T15:39:02.990Z,14.30
2022-09-29T15:44:19.189Z,15.00
2022-09-29T15:49:24.272Z,11.00
2022-09-29T15:54:35.136Z,13.90
2022-09-29T15:59:53.530Z,28.00
2022-09-29T16:05:01.669Z,35.60
2022-09-29T16:10:16.857Z,40.00
2022-09-29T16:15:29.002Z,35.80
2022-09-29T16:20:35.322Z,46.20
2022-09-29T16:25:39.748Z,29.20
2022-09-29T16:31:02.446Z,30.80
2022-09-29T16:36:37.074Z,21.80
2022-09-29T16:42:00.864Z,34.50
2022-09-29T16:47:30.548Z,24.80
2022-09-29T16:52:55.320Z,26.60
2022-09-29T16:58:04.006Z,29.40
2022-09-29T17:03:11.195Z,23.80
2022-09-29T17:08:27.443Z,20.60
2022-09-29T17:13:41.035Z,21.30
2022-09-29T17:18:44.495Z,18.60
2022-09-29T17:23:48.324Z,23.10
2022-09-29T17:28:52.047Z,18.00
2022-09-29T17:33:58.031Z,15.40
2022-09-29T17:39:05.025Z,18.90
2022-09-29T17:44:10.319Z,20.00
2022-09-29T17:49:17.303Z,20.00
2022-09-29T17:54:28.276Z,17.50
2022-09-29T17:59:35.276Z,23.40
2022-09-29T18:04:41.764Z,20.10
2022-09-29T18:09:47.696Z,20.00
2022-09-29T18:14:53.003Z,31.70
2022-09-29T18:19:56.829Z,18.70
2022-09-29T18:25:00.348Z,20.10
2022-09-29T18:30:08.065Z,18.60
2022-09-29T18:35:19.659Z,18.10
2022-09-29T18:40:27.441Z,17.00
2022-09-29T18:45:38.278Z,20.00
2022-09-29T18:50:47.532Z,17.50
2022-09-29T18:56:02.919Z,13.30
2022-09-29T19:01:09.996Z,11.30
2022-09-29T19:06:19.989Z,13.40
2022-09-29T19:11:26.796Z,10.50
2022-09-29T19:16:34.229Z,12.10
2022-09-29T19:21:38.534Z,14.50
2022-09-29T19:26:43.005Z,14.80
2022-09-29T19:31:48.445Z,15.60
2022-09-29T19:36:54.457Z,14.70
2022-09-29T19:42:00.395Z,17.50
2022-09-29T19:47:03.918Z,17.20
2022-09-29T19:52:07.829Z,15.60
2022-09-29T19:57:14.352Z,11.80
2022-09-29T20:02:18.021Z,15.70
2022-09-29T20:07:21.582Z,20.50
2022-09-29T20:12:30.050Z,14.00
2022-09-29T20:23:01.207Z,11.40
2022-09-29T20:28:15.413Z,14.50
2022-09-29T20:33:38.953Z,14.80
2022-09-29T20:38:52.714Z,12.30
2022-09-29T20:43:58.888Z,13.40
2022-09-29T20:49:05.406Z,15.20
2022-09-29T20:54:11.557Z,9.30
2022-09-29T20:59:25.126Z,11.60
2022-09-29T21:04:30.753Z,10.20
2022-09-29T21:09:34.448Z,9.60
2022-09-29T21:14:38.223Z,11.10
2022-09-29T21:19:42.461Z,11.20
2022-09-29T21:24:46.596Z,14.60
2022-09-29T21:29:50.632Z,9.50
2022-09-29T21:34:54.152Z,8.70
2022-09-29T21:39:57.669Z,12.30
2022-09-29T21:45:01.856Z,10.10
2022-09-29T21:50:07.266Z,10.70
2022-09-29T21:55:14.232Z,10.50
2022-09-29T22:00:17.897Z,9.50
2022-09-29T22:05:21.424Z,11.40
2022-09-29T22:10:25.039Z,15.50
2022-09-29T22:15:37.565Z,18.80
2022-09-29T22:20:41.901Z,11.40
2022-09-29T22:25:49.356Z,11.40
2022-09-29T22:30:53.493Z,10.90
2022-09-29T22:35:58.110Z,13.60
2022-09-29T22:41:09.174Z,13.50
2022-09-29T22:46:16.521Z,11.50
2022-09-29T22:51:21.989Z,10.40
2022-09-29T22:56:29.209Z,12.10
2022-09-29T23:01:34.663Z,10.00
2022-09-29T23:06:41.747Z,11.10
2022-09-29T23:11:49.450Z,11.00
2022-09-29T23:16:55.733Z,9.30
2022-09-29T23:22:04.888Z,9.90
2022-09-29T23:27:09.528Z,11.60
2022-09-29T23:32:13.664Z,10.40
2022-09-29T23:37:17.593Z,12.60
2022-09-29T23:42:22.087Z,10.60
2022-09-29T23:47:28.145Z,8.60
2022-09-29T23:52:32.047Z,8.10
2022-09-29T23:57:35.464Z,8.60
